sensor_id;sensor_type;location;lat;lon;timestamp;temperature;humidity
4399;DHT22;2213;49.720;7.296;2023-12-20T00:01:57;4.60;99.90
4399;DHT22;2213;49.720;7.296;2023-12-20T00:04:26;4.60;99.90
4399;DHT22;2213;49.720;7.296;2023-12-20T00:06:54;4.60;99.90
4399;DHT22;2213;49.720;7.296;2023-12-20T00:09:23;4.60;99.90
4399;DHT22;2213;49.720;7.296;2023-12-20T00:11:51;4.70;99.90
4399;DHT22;2213;49.720;7.296;2023-12-20T00:14:20;4.60;99.90
4399;DHT22;2213;49.720;7.296;2023-12-20T00:16:50;4.60;99.90
4399;DHT22;2213;49.720;7.296;2023-12-20T00:19:18;4.60;99.90
4399;DHT22;2213;49.720;7.296;2023-12-20T00:21:47;4.60;99.90
4399;DHT22;2213;49.720;7.296;2023-12-20T00:24:16;4.60;99.90
4399;DHT22;2213;49.720;7.296;2023-12-20T00:26:44;4.70;99.90
4399;DHT22;2213;49.720;7.296;2023-12-20T00:29:13;4.60;99.90
4399;DHT22;2213;49.720;7.296;2023-12-20T00:31:42;4.60;99.90
4399;DHT22;2213;49.720;7.296;2023-12-20T00:34:12;4.60;99.90
4399;DHT22;2213;49.720;7.296;2023-12-20T00:36:41;4.60;99.90
4399;DHT22;2213;49.720;7.296;2023-12-20T00:39:09;4.60;99.90
4399;DHT22;2213;49.720;7.296;2023-12-20T00:41:38;4.60;99.90
4399;DHT22;2213;49.720;7.296;2023-12-20T00:44:06;4.50;99.90
4399;DHT22;2213;49.720;7.296;2023-12-20T00:46:35;4.50;99.90
4399;DHT22;2213;49.720;7.296;2023-12-20T00:49:03;4.50;99.90
4399;DHT22;2213;49.720;7.296;2023-12-20T00:51:33;4.40;99.90
4399;DHT22;2213;49.720;7.296;2023-12-20T00:54:02;4.50;99.90
4399;DHT22;2213;49.720;7.296;2023-12-20T00:56:30;4.50;99.90
4399;DHT22;2213;49.720;7.296;2023-12-20T00:58:59;4.50;99.90
4399;DHT22;2213;49.720;7.296;2023-12-20T01:01:27;4.50;99.90
4399;DHT22;2213;49.720;7.296;2023-12-20T01:03:56;4.50;99.90
4399;DHT22;2213;49.720;7.296;2023-12-20T01:06:25;4.40;99.90
4399;DHT22;2213;49.720;7.296;2023-12-20T01:08:54;4.50;99.90
4399;DHT22;2213;49.720;7.296;2023-12-20T01:11:23;4.50;99.90
4399;DHT22;2213;49.720;7.296;2023-12-20T01:13:51;4.50;99.90
4399;DHT22;2213;49.720;7.296;2023-12-20T01:16:20;4.50;99.90
4399;DHT22;2213;49.720;7.296;2023-12-20T01:18:49;4.40;99.90
4399;DHT22;2213;49.720;7.296;2023-12-20T01:21:17;4.40;99.90
4399;DHT22;2213;49.720;7.296;2023-12-20T01:23:46;4.40;99.90
4399;DHT22;2213;49.720;7.296;2023-12-20T01:26:16;4.40;99.90
4399;DHT22;2213;49.720;7.296;2023-12-20T01:28:44;4.50;99.90
4399;DHT22;2213;49.720;7.296;2023-12-20T01:31:13;4.40;99.90
4399;DHT22;2213;49.720;7.296;2023-12-20T01:33:42;4.40;99.90
4399;DHT22;2213;49.720;7.296;2023-12-20T01:36:10;4.40;99.90
4399;DHT22;2213;49.720;7.296;2023-12-20T01:38:39;4.40;99.90
4399;DHT22;2213;49.720;7.296;2023-12-20T01:41:07;4.30;99.90
4399;DHT22;2213;49.720;7.296;2023-12-20T01:43:37;4.30;99.90
4399;DHT22;2213;49.720;7.296;2023-12-20T01:46:17;4.30;99.90
4399;DHT22;2213;49.720;7.296;2023-12-20T01:48:46;4.40;99.90
4399;DHT22;2213;49.720;7.296;2023-12-20T01:51:16;4.30;99.90
4399;DHT22;2213;49.720;7.296;2023-12-20T01:53:45;4.30;99.90
4399;DHT22;2213;49.720;7.296;2023-12-20T01:56:15;4.30;99.90
4399;DHT22;2213;49.720;7.296;2023-12-20T01:58:46;4.40;99.90
4399;DHT22;2213;49.720;7.296;2023-12-20T02:01:16;4.40;99.90
4399;DHT22;2213;49.720;7.296;2023-12-20T02:03:45;4.30;99.90
4399;DHT22;2213;49.720;7.296;2023-12-20T02:06:16;4.30;99.90
4399;DHT22;2213;49.720;7.296;2023-12-20T02:08:46;4.30;99.90
4399;DHT22;2213;49.720;7.296;2023-12-20T02:11:14;4.40;99.90
4399;DHT22;2213;49.720;7.296;2023-12-20T02:13:44;4.30;99.90
4399;DHT22;2213;49.720;7.296;2023-12-20T02:16:13;4.40;99.90
4399;DHT22;2213;49.720;7.296;2023-12-20T02:18:42;4.30;99.90
4399;DHT22;2213;49.720;7.296;2023-12-20T02:21:12;4.30;99.90
4399;DHT22;2213;49.720;7.296;2023-12-20T02:23:41;4.40;99.90
4399;DHT22;2213;49.720;7.296;2023-12-20T02:26:10;4.30;99.90
4399;DHT22;2213;49.720;7.296;2023-12-20T02:28:40;4.30;99.90
4399;DHT22;2213;49.720;7.296;2023-12-20T02:31:09;4.30;99.90
4399;DHT22;2213;49.720;7.296;2023-12-20T02:33:37;4.30;99.90
4399;DHT22;2213;49.720;7.296;2023-12-20T02:36:06;4.30;99.90
4399;DHT22;2213;49.720;7.296;2023-12-20T02:38:35;4.30;99.90
4399;DHT22;2213;49.720;7.296;2023-12-20T02:41:05;4.40;99.90
4399;DHT22;2213;49.720;7.296;2023-12-20T02:43:33;4.40;99.90
4399;DHT22;2213;49.720;7.296;2023-12-20T02:46:02;4.40;99.90
4399;DHT22;2213;49.720;7.296;2023-12-20T02:48:30;4.30;99.90
4399;DHT22;2213;49.720;7.296;2023-12-20T02:50:59;4.30;99.90
4399;DHT22;2213;49.720;7.296;2023-12-20T02:53:27;4.30;99.90
4399;DHT22;2213;49.720;7.296;2023-12-20T02:55:56;4.30;99.90
4399;DHT22;2213;49.720;7.296;2023-12-20T02:58:26;4.40;99.90
4399;DHT22;2213;49.720;7.296;2023-12-20T03:00:55;4.30;99.90
4399;DHT22;2213;49.720;7.296;2023-12-20T03:03:23;4.30;99.90
4399;DHT22;2213;49.720;7.296;2023-12-20T03:05:52;4.40;99.90
4399;DHT22;2213;49.720;7.296;2023-12-20T03:08:20;4.40;99.90
4399;DHT22;2213;49.720;7.296;2023-12-20T03:10:49;4.40;99.90
4399;DHT22;2213;49.720;7.296;2023-12-20T03:13:18;4.40;99.90
4399;DHT22;2213;49.720;7.296;2023-12-20T03:15:48;4.40;99.90
4399;DHT22;2213;49.720;7.296;2023-12-20T03:18:16;4.40;99.90
4399;DHT22;2213;49.720;7.296;2023-12-20T03:20:45;4.50;99.90
4399;DHT22;2213;49.720;7.296;2023-12-20T03:23:15;4.50;99.90
4399;DHT22;2213;49.720;7.296;2023-12-20T03:25:43;4.50;99.90
4399;DHT22;2213;49.720;7.296;2023-12-20T03:28:14;4.50;99.90
4399;DHT22;2213;49.720;7.296;2023-12-20T03:30:43;4.50;99.90
4399;DHT22;2213;49.720;7.296;2023-12-20T03:33:13;4.60;99.90
4399;DHT22;2213;49.720;7.296;2023-12-20T03:35:42;4.60;99.90
4399;DHT22;2213;49.720;7.296;2023-12-20T03:38:10;4.60;99.90
4399;DHT22;2213;49.720;7.296;2023-12-20T03:40:39;4.60;99.90
4399;DHT22;2213;49.720;7.296;2023-12-20T03:43:07;4.60;99.90
4399;DHT22;2213;49.720;7.296;2023-12-20T03:45:36;4.70;99.90
4399;DHT22;2213;49.720;7.296;2023-12-20T03:48:05;4.90;99.90
4399;DHT22;2213;49.720;7.296;2023-12-20T03:50:36;4.90;99.90
4399;DHT22;2213;49.720;7.296;2023-12-20T03:53:04;5.00;99.90
4399;DHT22;2213;49.720;7.296;2023-12-20T03:55:32;5.00;99.90
4399;DHT22;2213;49.720;7.296;2023-12-20T03:58:01;5.00;99.90
4399;DHT22;2213;49.720;7.296;2023-12-20T04:00:29;5.10;99.90
4399;DHT22;2213;49.720;7.296;2023-12-20T04:02:58;5.10;99.90
4399;DHT22;2213;49.720;7.296;2023-12-20T04:05:26;5.10;99.90
4399;DHT22;2213;49.720;7.296;2023-12-20T04:07:57;5.20;99.90
4399;DHT22;2213;49.720;7.296;2023-12-20T04:10:26;5.30;99.90
4399;DHT22;2213;49.720;7.296;2023-12-20T04:12:54;5.30;99.90
4399;DHT22;2213;49.720;7.296;2023-12-20T04:15:23;5.40;99.90
4399;DHT22;2213;49.720;7.296;2023-12-20T04:17:52;5.40;99.90
4399;DHT22;2213;49.720;7.296;2023-12-20T04:20:20;5.50;99.90
4399;DHT22;2213;49.720;7.296;2023-12-20T04:22:49;5.50;99.90
4399;DHT22;2213;49.720;7.296;2023-12-20T04:25:18;5.40;99.90
4399;DHT22;2213;49.720;7.296;2023-12-20T04:27:47;5.30;99.90
4399;DHT22;2213;49.720;7.296;2023-12-20T04:30:16;5.40;99.90
4399;DHT22;2213;49.720;7.296;2023-12-20T04:32:44;5.40;99.90
4399;DHT22;2213;49.720;7.296;2023-12-20T04:35:13;5.30;99.90
4399;DHT22;2213;49.720;7.296;2023-12-20T04:37:42;5.30;99.90
4399;DHT22;2213;49.720;7.296;2023-12-20T04:40:10;5.20;99.90
4399;DHT22;2213;49.720;7.296;2023-12-20T04:42:41;5.20;99.90
4399;DHT22;2213;49.720;7.296;2023-12-20T04:45:10;5.20;99.90
4399;DHT22;2213;49.720;7.296;2023-12-20T04:47:41;5.20;99.90
4399;DHT22;2213;49.720;7.296;2023-12-20T04:50:11;5.20;99.90
4399;DHT22;2213;49.720;7.296;2023-12-20T04:52:40;5.00;99.90
4399;DHT22;2213;49.720;7.296;2023-12-20T04:55:10;5.00;99.90
4399;DHT22;2213;49.720;7.296;2023-12-20T04:57:38;4.90;99.90
4399;DHT22;2213;49.720;7.296;2023-12-20T05:00:09;4.90;99.90
4399;DHT22;2213;49.720;7.296;2023-12-20T05:02:39;4.90;99.90
4399;DHT22;2213;49.720;7.296;2023-12-20T05:05:08;4.80;99.90
4399;DHT22;2213;49.720;7.296;2023-12-20T05:07:36;4.80;99.90
4399;DHT22;2213;49.720;7.296;2023-12-20T05:10:07;4.70;99.90
4399;DHT22;2213;49.720;7.296;2023-12-20T05:12:36;4.70;99.90
4399;DHT22;2213;49.720;7.296;2023-12-20T05:15:08;4.70;99.90
4399;DHT22;2213;49.720;7.296;2023-12-20T05:17:36;4.70;99.90
4399;DHT22;2213;49.720;7.296;2023-12-20T05:20:06;4.60;99.90
4399;DHT22;2213;49.720;7.296;2023-12-20T05:22:36;4.60;99.90
4399;DHT22;2213;49.720;7.296;2023-12-20T05:25:05;4.60;99.90
4399;DHT22;2213;49.720;7.296;2023-12-20T05:27:37;4.60;99.90
4399;DHT22;2213;49.720;7.296;2023-12-20T05:30:08;4.60;99.90
4399;DHT22;2213;49.720;7.296;2023-12-20T05:32:37;4.60;99.90
4399;DHT22;2213;49.720;7.296;2023-12-20T05:35:05;4.60;99.90
4399;DHT22;2213;49.720;7.296;2023-12-20T05:37:34;4.60;99.90
4399;DHT22;2213;49.720;7.296;2023-12-20T05:40:03;4.60;99.90
4399;DHT22;2213;49.720;7.296;2023-12-20T05:42:33;4.50;99.90
4399;DHT22;2213;49.720;7.296;2023-12-20T05:45:01;4.60;99.90
4399;DHT22;2213;49.720;7.296;2023-12-20T05:47:31;4.60;99.90
4399;DHT22;2213;49.720;7.296;2023-12-20T05:50:00;4.70;99.90
4399;DHT22;2213;49.720;7.296;2023-12-20T05:52:28;4.70;99.90
4399;DHT22;2213;49.720;7.296;2023-12-20T05:54:57;4.60;99.90
4399;DHT22;2213;49.720;7.296;2023-12-20T05:57:28;4.60;99.90
4399;DHT22;2213;49.720;7.296;2023-12-20T05:59:57;4.60;99.90
4399;DHT22;2213;49.720;7.296;2023-12-20T06:02:25;4.60;99.90
4399;DHT22;2213;49.720;7.296;2023-12-20T06:04:55;4.70;99.90
4399;DHT22;2213;49.720;7.296;2023-12-20T06:07:25;4.70;99.90
4399;DHT22;2213;49.720;7.296;2023-12-20T06:09:53;4.70;99.90
4399;DHT22;2213;49.720;7.296;2023-12-20T06:12:22;4.70;99.90
4399;DHT22;2213;49.720;7.296;2023-12-20T06:14:51;4.60;99.90
4399;DHT22;2213;49.720;7.296;2023-12-20T06:17:19;4.70;99.90
4399;DHT22;2213;49.720;7.296;2023-12-20T06:19:48;4.80;99.90
4399;DHT22;2213;49.720;7.296;2023-12-20T06:22:18;4.70;99.90
4399;DHT22;2213;49.720;7.296;2023-12-20T06:24:46;4.70;99.90
4399;DHT22;2213;49.720;7.296;2023-12-20T06:27:15;4.70;99.90
4399;DHT22;2213;49.720;7.296;2023-12-20T06:29:43;4.70;99.90
4399;DHT22;2213;49.720;7.296;2023-12-20T06:32:12;4.70;99.90
4399;DHT22;2213;49.720;7.296;2023-12-20T06:34:40;4.70;99.90
4399;DHT22;2213;49.720;7.296;2023-12-20T06:37:10;4.60;99.90
4399;DHT22;2213;49.720;7.296;2023-12-20T06:39:40;4.60;99.90
4399;DHT22;2213;49.720;7.296;2023-12-20T06:42:08;4.70;99.90
4399;DHT22;2213;49.720;7.296;2023-12-20T06:44:37;4.60;99.90
4399;DHT22;2213;49.720;7.296;2023-12-20T06:47:07;4.70;99.90
4399;DHT22;2213;49.720;7.296;2023-12-20T06:49:36;4.70;99.90
4399;DHT22;2213;49.720;7.296;2023-12-20T06:52:05;4.70;99.90
4399;DHT22;2213;49.720;7.296;2023-12-20T06:54:33;4.70;99.90
4399;DHT22;2213;49.720;7.296;2023-12-20T06:57:04;4.70;99.90
4399;DHT22;2213;49.720;7.296;2023-12-20T06:59:32;4.60;99.90
4399;DHT22;2213;49.720;7.296;2023-12-20T07:02:01;4.70;99.90
4399;DHT22;2213;49.720;7.296;2023-12-20T07:04:29;4.60;99.90
4399;DHT22;2213;49.720;7.296;2023-12-20T07:06:59;4.50;99.90
4399;DHT22;2213;49.720;7.296;2023-12-20T07:09:28;4.50;99.90
4399;DHT22;2213;49.720;7.296;2023-12-20T07:11:57;4.40;99.90
4399;DHT22;2213;49.720;7.296;2023-12-20T07:14:27;4.50;99.90
4399;DHT22;2213;49.720;7.296;2023-12-20T07:16:56;4.40;99.90
4399;DHT22;2213;49.720;7.296;2023-12-20T07:19:24;4.40;99.90
4399;DHT22;2213;49.720;7.296;2023-12-20T07:21:53;4.30;99.90
4399;DHT22;2213;49.720;7.296;2023-12-20T07:24:22;4.30;99.90
4399;DHT22;2213;49.720;7.296;2023-12-20T07:26:50;4.20;99.90
4399;DHT22;2213;49.720;7.296;2023-12-20T07:29:19;4.20;99.90
4399;DHT22;2213;49.720;7.296;2023-12-20T07:31:49;4.10;99.90
4399;DHT22;2213;49.720;7.296;2023-12-20T07:34:19;4.10;99.90
4399;DHT22;2213;49.720;7.296;2023-12-20T07:36:48;4.20;99.90
4399;DHT22;2213;49.720;7.296;2023-12-20T07:39:16;4.20;99.90
4399;DHT22;2213;49.720;7.296;2023-12-20T07:41:45;4.20;99.90
4399;DHT22;2213;49.720;7.296;2023-12-20T07:44:14;4.20;99.90
4399;DHT22;2213;49.720;7.296;2023-12-20T07:46:43;4.20;99.90
4399;DHT22;2213;49.720;7.296;2023-12-20T07:49:12;4.20;99.90
4399;DHT22;2213;49.720;7.296;2023-12-20T07:51:41;4.10;99.90
4399;DHT22;2213;49.720;7.296;2023-12-20T07:54:10;4.10;99.90
4399;DHT22;2213;49.720;7.296;2023-12-20T07:56:38;4.10;99.90
4399;DHT22;2213;49.720;7.296;2023-12-20T07:59:07;4.10;99.90
4399;DHT22;2213;49.720;7.296;2023-12-20T08:01:48;4.10;99.90
4399;DHT22;2213;49.720;7.296;2023-12-20T08:04:18;4.20;99.90
4399;DHT22;2213;49.720;7.296;2023-12-20T08:06:47;4.20;99.90
4399;DHT22;2213;49.720;7.296;2023-12-20T08:09:16;4.20;99.90
4399;DHT22;2213;49.720;7.296;2023-12-20T08:11:45;4.40;99.90
4399;DHT22;2213;49.720;7.296;2023-12-20T08:14:15;4.30;99.90
4399;DHT22;2213;49.720;7.296;2023-12-20T08:16:43;4.30;99.90
4399;DHT22;2213;49.720;7.296;2023-12-20T08:19:12;4.30;99.90
4399;DHT22;2213;49.720;7.296;2023-12-20T08:21:42;4.30;99.90
4399;DHT22;2213;49.720;7.296;2023-12-20T08:24:11;4.40;99.90
4399;DHT22;2213;49.720;7.296;2023-12-20T08:26:39;4.40;99.90
4399;DHT22;2213;49.720;7.296;2023-12-20T08:29:08;4.40;99.90
4399;DHT22;2213;49.720;7.296;2023-12-20T08:31:36;4.40;99.90
4399;DHT22;2213;49.720;7.296;2023-12-20T08:34:05;4.40;99.90
4399;DHT22;2213;49.720;7.296;2023-12-20T08:36:35;4.60;99.90
4399;DHT22;2213;49.720;7.296;2023-12-20T08:39:05;4.50;99.90
4399;DHT22;2213;49.720;7.296;2023-12-20T08:41:35;4.60;99.90
4399;DHT22;2213;49.720;7.296;2023-12-20T08:44:04;4.60;99.90
4399;DHT22;2213;49.720;7.296;2023-12-20T08:46:33;4.70;99.90
4399;DHT22;2213;49.720;7.296;2023-12-20T08:49:01;4.70;99.90
4399;DHT22;2213;49.720;7.296;2023-12-20T08:51:30;4.80;99.90
4399;DHT22;2213;49.720;7.296;2023-12-20T08:53:59;4.80;99.90
4399;DHT22;2213;49.720;7.296;2023-12-20T08:56:29;4.80;99.90
4399;DHT22;2213;49.720;7.296;2023-12-20T08:58:58;4.90;99.90
4399;DHT22;2213;49.720;7.296;2023-12-20T09:01:29;4.90;99.90
4399;DHT22;2213;49.720;7.296;2023-12-20T09:04:00;4.90;99.90
4399;DHT22;2213;49.720;7.296;2023-12-20T09:06:29;4.90;99.90
4399;DHT22;2213;49.720;7.296;2023-12-20T09:08:58;5.00;99.90
4399;DHT22;2213;49.720;7.296;2023-12-20T09:11:26;4.90;99.90
4399;DHT22;2213;49.720;7.296;2023-12-20T09:13:56;5.00;99.90
4399;DHT22;2213;49.720;7.296;2023-12-20T09:16:25;4.90;99.90
4399;DHT22;2213;49.720;7.296;2023-12-20T09:18:54;5.10;99.90
4399;DHT22;2213;49.720;7.296;2023-12-20T09:21:23;5.10;99.90
4399;DHT22;2213;49.720;7.296;2023-12-20T09:23:51;5.10;99.90
4399;DHT22;2213;49.720;7.296;2023-12-20T09:26:20;5.10;99.90
4399;DHT22;2213;49.720;7.296;2023-12-20T09:28:48;5.10;99.90
4399;DHT22;2213;49.720;7.296;2023-12-20T09:31:18;5.10;99.90
4399;DHT22;2213;49.720;7.296;2023-12-20T09:33:47;5.20;99.90
4399;DHT22;2213;49.720;7.296;2023-12-20T09:36:16;5.20;99.90
4399;DHT22;2213;49.720;7.296;2023-12-20T09:38:45;5.30;99.90
4399;DHT22;2213;49.720;7.296;2023-12-20T09:41:13;5.30;99.90
4399;DHT22;2213;49.720;7.296;2023-12-20T09:43:42;5.40;99.90
4399;DHT22;2213;49.720;7.296;2023-12-20T09:46:12;5.30;99.90
4399;DHT22;2213;49.720;7.296;2023-12-20T09:48:46;5.40;99.90
4399;DHT22;2213;49.720;7.296;2023-12-20T09:51:15;5.40;99.90
4399;DHT22;2213;49.720;7.296;2023-12-20T09:53:45;5.40;99.90
4399;DHT22;2213;49.720;7.296;2023-12-20T09:56:15;5.40;99.90
4399;DHT22;2213;49.720;7.296;2023-12-20T09:58:44;5.40;99.90
4399;DHT22;2213;49.720;7.296;2023-12-20T10:01:12;5.40;99.90
4399;DHT22;2213;49.720;7.296;2023-12-20T10:03:43;5.30;99.90
4399;DHT22;2213;49.720;7.296;2023-12-20T10:06:13;5.40;99.90
4399;DHT22;2213;49.720;7.296;2023-12-20T10:08:42;5.40;99.90
4399;DHT22;2213;49.720;7.296;2023-12-20T10:11:11;5.40;99.90
4399;DHT22;2213;49.720;7.296;2023-12-20T10:13:40;5.40;99.90
4399;DHT22;2213;49.720;7.296;2023-12-20T10:16:09;5.40;99.90
4399;DHT22;2213;49.720;7.296;2023-12-20T10:18:38;5.50;99.90
4399;DHT22;2213;49.720;7.296;2023-12-20T10:21:07;5.40;99.90
4399;DHT22;2213;49.720;7.296;2023-12-20T10:23:39;5.50;99.90
4399;DHT22;2213;49.720;7.296;2023-12-20T10:26:08;5.60;99.90
4399;DHT22;2213;49.720;7.296;2023-12-20T10:28:37;5.50;99.90
4399;DHT22;2213;49.720;7.296;2023-12-20T10:31:06;5.60;99.90
4399;DHT22;2213;49.720;7.296;2023-12-20T10:33:34;5.50;99.90
4399;DHT22;2213;49.720;7.296;2023-12-20T10:36:04;5.60;99.90
4399;DHT22;2213;49.720;7.296;2023-12-20T10:38:34;5.70;99.90
4399;DHT22;2213;49.720;7.296;2023-12-20T10:41:08;5.70;99.90
4399;DHT22;2213;49.720;7.296;2023-12-20T10:43:39;5.70;99.90
4399;DHT22;2213;49.720;7.296;2023-12-20T10:46:09;5.80;99.90
4399;DHT22;2213;49.720;7.296;2023-12-20T10:48:39;5.70;99.90
4399;DHT22;2213;49.720;7.296;2023-12-20T10:51:10;5.70;99.90
4399;DHT22;2213;49.720;7.296;2023-12-20T10:53:41;5.70;99.90
4399;DHT22;2213;49.720;7.296;2023-12-20T10:56:16;5.80;99.90
4399;DHT22;2213;49.720;7.296;2023-12-20T10:58:46;5.80;99.90
4399;DHT22;2213;49.720;7.296;2023-12-20T11:01:16;5.70;99.90
4399;DHT22;2213;49.720;7.296;2023-12-20T11:03:49;5.80;99.90
4399;DHT22;2213;49.720;7.296;2023-12-20T11:06:29;5.80;99.90
4399;DHT22;2213;49.720;7.296;2023-12-20T11:09:12;5.80;99.90
4399;DHT22;2213;49.720;7.296;2023-12-20T11:12:02;5.70;99.90
4399;DHT22;2213;49.720;7.296;2023-12-20T11:14:46;5.70;99.90
4399;DHT22;2213;49.720;7.296;2023-12-20T11:17:17;5.80;99.90
4399;DHT22;2213;49.720;7.296;2023-12-20T11:20:07;5.70;99.90
4399;DHT22;2213;49.720;7.296;2023-12-20T11:22:40;5.80;99.90
4399;DHT22;2213;49.720;7.296;2023-12-20T11:25:20;5.80;99.90
4399;DHT22;2213;49.720;7.296;2023-12-20T11:28:08;5.80;99.90
4399;DHT22;2213;49.720;7.296;2023-12-20T11:30:41;5.80;99.90
4399;DHT22;2213;49.720;7.296;2023-12-20T11:33:15;5.80;99.90
4399;DHT22;2213;49.720;7.296;2023-12-20T11:35:46;5.90;99.90
4399;DHT22;2213;49.720;7.296;2023-12-20T11:38:14;5.80;99.90
4399;DHT22;2213;49.720;7.296;2023-12-20T11:40:44;5.90;99.90
4399;DHT22;2213;49.720;7.296;2023-12-20T11:43:29;5.80;99.90
4399;DHT22;2213;49.720;7.296;2023-12-20T11:46:03;5.90;99.90
4399;DHT22;2213;49.720;7.296;2023-12-20T11:48:35;5.70;99.90
4399;DHT22;2213;49.720;7.296;2023-12-20T11:51:09;5.80;99.90
4399;DHT22;2213;49.720;7.296;2023-12-20T11:53:38;5.90;99.90
4399;DHT22;2213;49.720;7.296;2023-12-20T11:56:06;5.90;99.90
4399;DHT22;2213;49.720;7.296;2023-12-20T11:58:37;5.90;99.90
4399;DHT22;2213;49.720;7.296;2023-12-20T12:01:06;5.80;99.90
4399;DHT22;2213;49.720;7.296;2023-12-20T12:03:36;5.80;99.90
4399;DHT22;2213;49.720;7.296;2023-12-20T12:06:05;5.80;99.90
4399;DHT22;2213;49.720;7.296;2023-12-20T12:08:35;5.90;99.90
4399;DHT22;2213;49.720;7.296;2023-12-20T12:11:04;5.80;99.90
4399;DHT22;2213;49.720;7.296;2023-12-20T12:13:33;5.80;99.90
4399;DHT22;2213;49.720;7.296;2023-12-20T12:16:04;5.90;99.90
4399;DHT22;2213;49.720;7.296;2023-12-20T12:18:34;6.00;99.90
4399;DHT22;2213;49.720;7.296;2023-12-20T12:21:03;6.00;99.90
4399;DHT22;2213;49.720;7.296;2023-12-20T12:23:41;5.90;99.90
4399;DHT22;2213;49.720;7.296;2023-12-20T12:26:10;6.00;99.90
4399;DHT22;2213;49.720;7.296;2023-12-20T12:28:40;6.00;99.90
4399;DHT22;2213;49.720;7.296;2023-12-20T12:31:14;6.00;99.90
4399;DHT22;2213;49.720;7.296;2023-12-20T12:33:43;5.90;99.90
4399;DHT22;2213;49.720;7.296;2023-12-20T12:36:12;6.00;99.90
4399;DHT22;2213;49.720;7.296;2023-12-20T12:38:43;6.00;99.90
4399;DHT22;2213;49.720;7.296;2023-12-20T12:41:13;5.80;99.90
4399;DHT22;2213;49.720;7.296;2023-12-20T12:43:42;5.90;99.90
4399;DHT22;2213;49.720;7.296;2023-12-20T12:46:11;5.90;99.90
4399;DHT22;2213;49.720;7.296;2023-12-20T12:48:41;5.90;99.90
4399;DHT22;2213;49.720;7.296;2023-12-20T12:51:13;5.90;99.90
4399;DHT22;2213;49.720;7.296;2023-12-20T12:53:42;6.00;99.90
4399;DHT22;2213;49.720;7.296;2023-12-20T12:56:12;6.00;99.90
4399;DHT22;2213;49.720;7.296;2023-12-20T12:58:42;6.00;99.90
4399;DHT22;2213;49.720;7.296;2023-12-20T13:01:11;6.00;99.90
4399;DHT22;2213;49.720;7.296;2023-12-20T13:03:41;5.90;99.90
4399;DHT22;2213;49.720;7.296;2023-12-20T13:06:10;5.80;99.90
4399;DHT22;2213;49.720;7.296;2023-12-20T13:08:38;5.70;99.90
4399;DHT22;2213;49.720;7.296;2023-12-20T13:11:07;5.80;99.90
4399;DHT22;2213;49.720;7.296;2023-12-20T13:13:36;5.80;99.90
4399;DHT22;2213;49.720;7.296;2023-12-20T13:16:05;5.90;99.90
4399;DHT22;2213;49.720;7.296;2023-12-20T13:18:34;5.80;99.90
4399;DHT22;2213;49.720;7.296;2023-12-20T13:21:06;5.80;99.90
4399;DHT22;2213;49.720;7.296;2023-12-20T13:23:34;5.60;99.90
4399;DHT22;2213;49.720;7.296;2023-12-20T13:26:07;5.50;99.90
4399;DHT22;2213;49.720;7.296;2023-12-20T13:28:35;5.70;99.90
4399;DHT22;2213;49.720;7.296;2023-12-20T13:31:04;5.80;99.90
4399;DHT22;2213;49.720;7.296;2023-12-20T13:33:33;5.80;99.90
4399;DHT22;2213;49.720;7.296;2023-12-20T13:36:02;5.70;99.90
4399;DHT22;2213;49.720;7.296;2023-12-20T13:38:35;5.70;99.90
4399;DHT22;2213;49.720;7.296;2023-12-20T13:41:03;5.70;99.90
4399;DHT22;2213;49.720;7.296;2023-12-20T13:43:32;5.80;99.90
4399;DHT22;2213;49.720;7.296;2023-12-20T13:46:03;5.90;99.90
4399;DHT22;2213;49.720;7.296;2023-12-20T13:48:31;5.70;99.90
4399;DHT22;2213;49.720;7.296;2023-12-20T13:51:00;5.80;99.90
4399;DHT22;2213;49.720;7.296;2023-12-20T13:53:29;5.80;99.90
4399;DHT22;2213;49.720;7.296;2023-12-20T13:55:59;5.90;99.90
4399;DHT22;2213;49.720;7.296;2023-12-20T13:58:28;5.90;99.90
4399;DHT22;2213;49.720;7.296;2023-12-20T14:00:57;5.90;99.90
4399;DHT22;2213;49.720;7.296;2023-12-20T14:03:26;6.00;99.90
4399;DHT22;2213;49.720;7.296;2023-12-20T14:05:55;6.00;99.90
4399;DHT22;2213;49.720;7.296;2023-12-20T14:08:24;6.00;99.90
4399;DHT22;2213;49.720;7.296;2023-12-20T14:10:54;6.00;99.90
4399;DHT22;2213;49.720;7.296;2023-12-20T14:13:25;6.00;99.90
4399;DHT22;2213;49.720;7.296;2023-12-20T14:15:54;6.00;99.90
4399;DHT22;2213;49.720;7.296;2023-12-20T14:18:23;6.00;99.90
4399;DHT22;2213;49.720;7.296;2023-12-20T14:20:52;6.00;99.90
4399;DHT22;2213;49.720;7.296;2023-12-20T14:23:21;6.10;99.90
4399;DHT22;2213;49.720;7.296;2023-12-20T14:25:49;6.10;99.90
4399;DHT22;2213;49.720;7.296;2023-12-20T14:28:19;5.90;99.90
4399;DHT22;2213;49.720;7.296;2023-12-20T14:30:49;5.80;99.90
4399;DHT22;2213;49.720;7.296;2023-12-20T14:33:18;6.00;99.90
4399;DHT22;2213;49.720;7.296;2023-12-20T14:35:48;6.10;99.90
4399;DHT22;2213;49.720;7.296;2023-12-20T14:38:17;6.10;99.90
4399;DHT22;2213;49.720;7.296;2023-12-20T14:40:46;6.10;99.90
4399;DHT22;2213;49.720;7.296;2023-12-20T14:43:15;6.00;99.90
4399;DHT22;2213;49.720;7.296;2023-12-20T14:45:44;6.00;99.90
4399;DHT22;2213;49.720;7.296;2023-12-20T14:48:14;5.90;99.90
4399;DHT22;2213;49.720;7.296;2023-12-20T14:50:43;5.90;99.90
4399;DHT22;2213;49.720;7.296;2023-12-20T14:53:15;6.00;99.90
4399;DHT22;2213;49.720;7.296;2023-12-20T14:55:49;5.90;99.90
4399;DHT22;2213;49.720;7.296;2023-12-20T14:58:18;6.00;99.90
4399;DHT22;2213;49.720;7.296;2023-12-20T15:00:47;6.10;99.90
4399;DHT22;2213;49.720;7.296;2023-12-20T15:03:17;6.10;99.90
4399;DHT22;2213;49.720;7.296;2023-12-20T15:05:46;6.00;99.90
4399;DHT22;2213;49.720;7.296;2023-12-20T15:08:15;6.00;99.90
4399;DHT22;2213;49.720;7.296;2023-12-20T15:10:43;6.10;99.90
4399;DHT22;2213;49.720;7.296;2023-12-20T15:13:12;5.90;99.90
4399;DHT22;2213;49.720;7.296;2023-12-20T15:15:41;6.00;99.90
4399;DHT22;2213;49.720;7.296;2023-12-20T15:18:13;6.00;99.90
4399;DHT22;2213;49.720;7.296;2023-12-20T15:20:43;5.90;99.90
4399;DHT22;2213;49.720;7.296;2023-12-20T15:23:12;6.00;99.90
4399;DHT22;2213;49.720;7.296;2023-12-20T15:25:40;6.00;99.90
4399;DHT22;2213;49.720;7.296;2023-12-20T15:28:09;5.90;99.90
4399;DHT22;2213;49.720;7.296;2023-12-20T15:30:38;5.90;99.90
4399;DHT22;2213;49.720;7.296;2023-12-20T15:33:07;6.10;99.90
4399;DHT22;2213;49.720;7.296;2023-12-20T15:35:35;6.10;99.90
4399;DHT22;2213;49.720;7.296;2023-12-20T15:38:05;6.10;99.90
4399;DHT22;2213;49.720;7.296;2023-12-20T15:40:34;5.90;99.90
4399;DHT22;2213;49.720;7.296;2023-12-20T15:43:03;6.00;99.90
4399;DHT22;2213;49.720;7.296;2023-12-20T15:45:32;6.10;99.90
4399;DHT22;2213;49.720;7.296;2023-12-20T15:48:00;6.10;99.90
4399;DHT22;2213;49.720;7.296;2023-12-20T15:50:28;6.10;99.90
4399;DHT22;2213;49.720;7.296;2023-12-20T15:52:57;6.10;99.90
4399;DHT22;2213;49.720;7.296;2023-12-20T15:55:26;6.10;99.90
4399;DHT22;2213;49.720;7.296;2023-12-20T15:57:55;6.10;99.90
4399;DHT22;2213;49.720;7.296;2023-12-20T16:00:25;6.10;99.90
4399;DHT22;2213;49.720;7.296;2023-12-20T16:02:53;6.20;99.90
4399;DHT22;2213;49.720;7.296;2023-12-20T16:05:22;6.10;99.90
4399;DHT22;2213;49.720;7.296;2023-12-20T16:07:51;6.10;99.90
4399;DHT22;2213;49.720;7.296;2023-12-20T16:10:19;6.10;99.90
4399;DHT22;2213;49.720;7.296;2023-12-20T16:12:50;6.20;99.90
4399;DHT22;2213;49.720;7.296;2023-12-20T16:15:19;6.20;99.90
4399;DHT22;2213;49.720;7.296;2023-12-20T16:17:47;6.00;99.90
4399;DHT22;2213;49.720;7.296;2023-12-20T16:20:17;5.90;99.90
4399;DHT22;2213;49.720;7.296;2023-12-20T16:22:45;5.90;99.90
4399;DHT22;2213;49.720;7.296;2023-12-20T16:25:14;6.00;99.90
4399;DHT22;2213;49.720;7.296;2023-12-20T16:27:43;5.90;99.90
4399;DHT22;2213;49.720;7.296;2023-12-20T16:30:15;6.10;99.90
4399;DHT22;2213;49.720;7.296;2023-12-20T16:32:44;6.10;99.90